SBPA/POA METAR and TAF weather

Enter ICAO airport designator
Station Type Date Time Source
SBPA METAR 2022/06/28 16:00 UTC NOAA

SBPA 281600Z 01005KT 320V050 CAVOK 22/15 Q1013


Station Type Date Time Source
SBPA Decoded METAR 2022/06/28 16:00 UTC NOAA

Porto Alegre Aero-Porto , Brazil (SBPA) 30-00S 051-11W 3M
Jun 28, 2022 - 12:00 PM EDT / 2022.06.28 1600 UTC
Wind: from the N (010 degrees) at 6 MPH (5 KT) (direction variable):0
Visibility: greater than 7 mile(s):0
Temperature: 71 F (22 C)
Dew Point: 59 F (15 C)
Relative Humidity: 64%
Pressure (altimeter): 29.91 in. Hg (1013 hPa)
ob: SBPA 281600Z 01005KT 320V050 CAVOK 22/15 Q1013
cycle: 16

Station Type Date Time Source
SBPA TAF 2022/06/28 18:09 UTC NOAA

TAF SBPA 281500Z 2818/2918 34005KT 8000 NSC TX22/2818Z TN10/2908Z
BECMG 2820/2822 20005KT 5000 RA BKN008
BECMG 2901/2903 00000KT 4000 BR BKN003
BECMG 2909/2911 30005KT 9999 NSW BKN008
BECMG 2913/2915 CAVOK
RMK PDY

Example: see airport list